createdAt,value
2023-04-17T00:00:20.723Z,102318.59
2023-04-17T00:03:22.548Z,102317.72
2023-04-17T00:06:24.788Z,102323.13
2023-04-17T00:09:26.440Z,102327.56
2023-04-17T00:12:27.999Z,102327.56
2023-04-17T00:15:29.710Z,102325.81
2023-04-17T00:18:31.339Z,102330.31
2023-04-17T00:21:32.975Z,102326.88
2023-04-17T00:24:34.525Z,102320.75
2023-04-17T00:27:36.114Z,102320.78
2023-04-17T00:30:37.749Z,102320.91
2023-04-17T00:33:39.310Z,102319.19
2023-04-17T00:36:40.831Z,102311.31
2023-04-17T00:39:42.534Z,102319.38
2023-04-17T00:42:45.664Z,102316.88
2023-04-17T00:45:50.476Z,102313.38
2023-04-17T00:48:52.220Z,102321.41
2023-04-17T00:51:53.892Z,102312.72
2023-04-17T00:54:56.251Z,102318.94
2023-04-17T00:57:58.477Z,102317.34
2023-04-17T01:01:00.495Z,102313.97
2023-04-17T01:04:05.303Z,102316.72
2023-04-17T01:07:07.363Z,102318.56
2023-04-17T01:10:09.879Z,102315.06
2023-04-17T01:13:11.591Z,102317.03
2023-04-17T01:16:13.688Z,102314.50
2023-04-17T01:19:16.160Z,102317.16
2023-04-17T01:22:18.153Z,102312.75
2023-04-17T01:25:19.977Z,102312.81
2023-04-17T01:28:21.553Z,102317.31
2023-04-17T01:31:24.053Z,102315.66
2023-04-17T01:34:25.705Z,102320.09
2023-04-17T01:37:27.549Z,102312.16
2023-04-17T01:40:29.121Z,102310.44
2023-04-17T01:43:30.647Z,102322.03
2023-04-17T01:46:32.246Z,102314.00
2023-04-17T01:49:33.970Z,102317.53
2023-04-17T01:52:36.448Z,102315.75
2023-04-17T01:55:38.016Z,102314.00
2023-04-17T01:58:40.008Z,102311.34
2023-04-17T02:01:41.698Z,102314.00
2023-04-17T02:04:43.421Z,102322.03
2023-04-17T02:07:45.295Z,102324.72
2023-04-17T02:10:46.901Z,102326.56
2023-04-17T02:13:48.498Z,102326.63
2023-04-17T02:16:50.195Z,102324.94
2023-04-17T02:19:51.738Z,102320.53
2023-04-17T02:22:53.330Z,102329.47
2023-04-17T02:25:54.896Z,102319.81
2023-04-17T02:28:56.422Z,102320.78
2023-04-17T02:31:57.955Z,102321.75
2023-04-17T02:34:59.559Z,102321.78
2023-04-17T02:38:01.122Z,102324.50
2023-04-17T02:41:02.737Z,102328.06
2023-04-17T02:44:04.387Z,102325.47
2023-04-17T02:47:06.565Z,102328.19
2023-04-17T02:50:09.234Z,102331.75
2023-04-17T02:53:11.784Z,102343.22
2023-04-17T02:56:13.294Z,102334.47
2023-04-17T02:59:14.942Z,102333.59
2023-04-17T03:02:21.907Z,102329.25
2023-04-17T03:05:23.850Z,102328.44
2023-04-17T03:08:25.393Z,102330.22
2023-04-17T03:11:27.014Z,102335.63
2023-04-17T03:14:28.606Z,102339.25
2023-04-17T03:17:30.148Z,102343.66
2023-04-17T03:20:31.691Z,102341.13
2023-04-17T03:23:33.393Z,102338.53
2023-04-17T03:26:34.986Z,102335.94
2023-04-17T03:29:36.567Z,102344.78
2023-04-17T03:32:38.197Z,102351.00
2023-04-17T03:35:39.963Z,102351.06
2023-04-17T03:38:42.051Z,102344.91
2023-04-17T03:41:43.717Z,102349.41
2023-04-17T03:44:45.411Z,102352.09
2023-04-17T03:47:47.997Z,102358.38
2023-04-17T03:50:51.489Z,102358.44
2023-04-17T03:53:53.451Z,102350.53
2023-04-17T03:56:55.014Z,102361.13
2023-04-17T03:59:56.542Z,102360.28
2023-04-17T04:02:58.200Z,102355.06
2023-04-17T04:05:59.930Z,102362.13
2023-04-17T04:09:01.428Z,102358.66
2023-04-17T04:12:03.094Z,102361.38
2023-04-17T04:15:05.175Z,102370.22
2023-04-17T04:18:06.785Z,102372.94
2023-04-17T04:21:08.342Z,102365.91
2023-04-17T04:24:10.289Z,102371.25
2023-04-17T04:27:12.807Z,102373.91
2023-04-17T04:30:14.838Z,102381.03
2023-04-17T04:33:22.611Z,102378.44
2023-04-17T04:36:25.155Z,102382.91
2023-04-17T04:39:26.738Z,102381.16
2023-04-17T04:42:29.399Z,102381.22
2023-04-17T04:45:30.915Z,102379.22
2023-04-17T04:48:32.431Z,102388.13
2023-04-17T04:51:35.109Z,102381.84
2023-04-17T04:54:36.665Z,102384.56
2023-04-17T04:57:38.218Z,102391.00
2023-04-17T05:00:39.984Z,102392.06
2023-04-17T05:03:41.783Z,102391.41
2023-04-17T05:06:43.502Z,102403.94
2023-04-17T05:09:45.330Z,102402.28
2023-04-17T05:12:47.181Z,102399.81
2023-04-17T05:15:48.777Z,102410.56
2023-04-17T05:18:50.381Z,102414.19
2023-04-17T05:21:52.014Z,102414.22
2023-04-17T05:24:53.584Z,102415.19
2023-04-17T05:27:55.362Z,102416.13
2023-04-17T05:30:57.247Z,102421.50
2023-04-17T05:33:58.815Z,102425.06
2023-04-17T05:37:00.367Z,102422.47
2023-04-17T05:40:02.683Z,102423.34
2023-04-17T05:43:11.263Z,102419.81
2023-04-17T05:46:12.839Z,102423.28
2023-04-17T05:49:14.509Z,102425.06
2023-04-17T05:52:16.378Z,102422.41
2023-04-17T05:55:20.269Z,102424.97
2023-04-17T05:58:24.457Z,102425.78
2023-04-17T06:01:26.350Z,102431.88
2023-04-17T06:04:29.501Z,102430.91
2023-04-17T06:07:31.256Z,102437.03
2023-04-17T06:10:33.745Z,102426.28
2023-04-17T06:13:35.306Z,102436.78
2023-04-17T06:16:36.866Z,102442.00
2023-04-17T06:19:38.774Z,102445.38
2023-04-17T06:22:41.241Z,102446.97
2023-04-17T06:25:42.888Z,102444.16
2023-04-17T06:28:44.500Z,102454.56
2023-04-17T06:31:46.377Z,102455.41
2023-04-17T06:34:59.141Z,102457.91
2023-04-17T06:38:01.459Z,102460.34
2023-04-17T06:41:03.058Z,102454.09
2023-04-17T06:44:04.956Z,102457.47
2023-04-17T06:47:06.787Z,102459.16
2023-04-17T06:50:09.448Z,102459.88
2023-04-17T06:53:11.361Z,102464.13
2023-04-17T06:56:12.953Z,102465.75
2023-04-17T06:59:14.850Z,102468.25
2023-04-17T07:02:16.703Z,102476.00
2023-04-17T07:05:18.980Z,102475.84
2023-04-17T07:08:22.422Z,102470.44
2023-04-17T07:11:24.187Z,102474.75
2023-04-17T07:14:25.854Z,102484.25
2023-04-17T07:17:27.923Z,102487.47
2023-04-17T07:20:29.541Z,102489.84
2023-04-17T07:23:31.175Z,102494.94
2023-04-17T07:26:32.756Z,102496.31
2023-04-17T07:29:34.379Z,102502.81
2023-04-17T07:32:36.470Z,102501.31
2023-04-17T07:35:38.062Z,102498.78
2023-04-17T07:38:41.027Z,102508.84
2023-04-17T07:41:42.648Z,102508.19
2023-04-17T07:44:44.253Z,102499.53
2023-04-17T07:47:46.640Z,102500.56
2023-04-17T07:50:49.304Z,102510.44
2023-04-17T07:53:50.849Z,102510.53
2023-04-17T07:56:52.661Z,102507.00
2023-04-17T07:59:54.294Z,102515.16
2023-04-17T08:02:56.268Z,102517.97
2023-04-17T08:05:58.733Z,102520.09
2023-04-17T08:09:02.207Z,102520.56
2023-04-17T08:12:03.882Z,102518.25
2023-04-17T08:15:05.983Z,102513.25
2023-04-17T08:18:09.646Z,102517.19
2023-04-17T08:21:11.583Z,102516.63
2023-04-17T08:24:13.121Z,102516.91
2023-04-17T08:27:15.347Z,102514.44
2023-04-17T08:30:19.011Z,102517.53
2023-04-17T08:33:21.261Z,102519.91
2023-04-17T08:36:23.027Z,102517.06
2023-04-17T08:39:24.562Z,102513.47
2023-04-17T08:42:26.386Z,102517.72
2023-04-17T08:45:28.522Z,102512.06
2023-04-17T08:48:31.166Z,102524.03
2023-04-17T08:51:32.805Z,102521.09
2023-04-17T08:54:35.602Z,102518.91
2023-04-17T08:57:57.107Z,102519.28
2023-04-17T09:01:09.128Z,102518.84
2023-04-17T09:04:10.840Z,102516.47
2023-04-17T09:07:13.882Z,102511.28
2023-04-17T09:10:16.207Z,102520.72
2023-04-17T09:13:20.495Z,102520.38
2023-04-17T09:16:24.662Z,102518.50
2023-04-17T09:19:26.443Z,102519.97
2023-04-17T09:22:27.993Z,102519.13
2023-04-17T09:25:29.968Z,102516.78
2023-04-17T09:28:35.443Z,102520.31
2023-04-17T09:31:39.236Z,102522.50
2023-04-17T09:34:41.741Z,102517.66
2023-04-17T09:37:58.652Z,102519.03
2023-04-17T09:41:00.251Z,102515.75
2023-04-17T09:44:05.311Z,102515.50
2023-04-17T09:47:08.236Z,102510.03
2023-04-17T09:50:10.125Z,102507.50
2023-04-17T09:53:11.716Z,102512.03
2023-04-17T09:56:13.693Z,102508.81
2023-04-17T09:59:16.619Z,102510.81
2023-04-17T10:02:19.984Z,102510.22
2023-04-17T10:05:31.555Z,102510.53
2023-04-17T10:08:33.694Z,102519.75
2023-04-17T10:11:38.306Z,102511.81
2023-04-17T10:14:44.093Z,102509.91
2023-04-17T10:17:47.374Z,102511.16
2023-04-17T10:20:50.797Z,102514.91
2023-04-17T10:23:53.229Z,102503.31
2023-04-17T10:26:55.041Z,102499.22
2023-04-17T10:30:01.738Z,102506.63
2023-04-17T10:33:22.096Z,102502.88
2023-04-17T10:36:39.028Z,102501.59
2023-04-17T10:39:52.836Z,102496.31
2023-04-17T10:43:23.230Z,102494.19
2023-04-17T10:46:26.130Z,102487.75
2023-04-17T10:49:27.865Z,102493.63
2023-04-17T10:52:32.321Z,102485.41
2023-04-17T10:55:33.924Z,102495.06
2023-04-17T10:58:39.936Z,102485.03
2023-04-17T11:01:51.019Z,102494.75
2023-04-17T11:05:06.591Z,102483.91
2023-04-17T11:08:09.711Z,102472.56
2023-04-17T11:11:15.457Z,102483.91
2023-04-17T11:14:20.279Z,102479.56
2023-04-17T11:17:22.773Z,102474.44
2023-04-17T11:20:25.948Z,102481.28
2023-04-17T11:23:33.507Z,102475.28
2023-04-17T11:26:47.602Z,102482.50
2023-04-17T11:29:49.140Z,102480.38
2023-04-17T11:32:52.124Z,102478.13
2023-04-17T11:35:54.674Z,102481.16
2023-04-17T11:38:57.217Z,102462.28
2023-04-17T11:41:59.058Z,102480.34
2023-04-17T11:45:07.367Z,102473.59
2023-04-17T11:48:13.520Z,102482.97
2023-04-17T11:51:18.226Z,102475.50
2023-04-17T11:54:27.633Z,102475.31
2023-04-17T11:57:29.461Z,102475.00
2023-04-17T12:00:31.947Z,102475.00
2023-04-17T12:03:37.054Z,102476.47
2023-04-17T12:06:38.865Z,102475.56
2023-04-17T12:09:41.016Z,102475.56
2023-04-17T12:12:45.248Z,102474.50
2023-04-17T12:15:46.992Z,102464.84
2023-04-17T12:18:48.692Z,102479.06
2023-04-17T12:21:52.402Z,102478.47
2023-04-17T12:24:53.939Z,102482.88
2023-04-17T12:27:57.078Z,102476.84
2023-04-17T12:30:58.678Z,102465.22
2023-04-17T12:34:00.369Z,102467.28
2023-04-17T12:37:02.039Z,102476.66
2023-04-17T12:40:04.317Z,102471.13
2023-04-17T12:43:06.719Z,102480.94
2023-04-17T12:46:08.301Z,102476.38
2023-04-17T12:49:10.242Z,102477.03
2023-04-17T12:52:11.983Z,102475.91
2023-04-17T12:55:13.612Z,102482.16
2023-04-17T12:58:15.275Z,102487.97
2023-04-17T13:01:16.972Z,102472.47
2023-04-17T13:04:19.229Z,102474.63
2023-04-17T13:07:21.499Z,102471.34
2023-04-17T13:10:23.188Z,102476.69
2023-04-17T13:13:24.798Z,102476.09
2023-04-17T13:16:27.046Z,102481.81
2023-04-17T13:19:28.853Z,102469.66
2023-04-17T13:22:30.555Z,102471.94
2023-04-17T13:25:32.491Z,102475.22
2023-04-17T13:28:34.640Z,102472.53
2023-04-17T13:31:37.307Z,102470.19
2023-04-17T13:34:39.375Z,102466.75
2023-04-17T13:37:41.484Z,102473.59
2023-04-17T13:40:43.102Z,102465.34
2023-04-17T13:43:45.139Z,102462.97
2023-04-17T13:46:47.607Z,102456.91
2023-04-17T13:49:49.353Z,102454.22
2023-04-17T13:52:51.161Z,102451.53
2023-04-17T13:55:52.796Z,102442.34
2023-04-17T13:58:55.011Z,102434.47
2023-04-17T14:01:56.651Z,102437.03
2023-04-17T14:04:58.550Z,102434.19
2023-04-17T14:08:00.294Z,102428.34
2023-04-17T14:11:01.954Z,102429.84
2023-04-17T14:14:03.512Z,102440.03
2023-04-17T14:17:05.337Z,102417.78
2023-04-17T14:20:07.912Z,102422.00
2023-04-17T14:23:09.484Z,102422.56
2023-04-17T14:26:12.265Z,102428.13
2023-04-17T14:29:14.465Z,102425.44
2023-04-17T14:32:16.248Z,102423.34
2023-04-17T14:35:17.813Z,102418.34
2023-04-17T14:38:20.205Z,102417.50
2023-04-17T14:41:21.803Z,102421.81
2023-04-17T14:44:23.382Z,102418.16
2023-04-17T14:47:25.000Z,102415.19
2023-04-17T14:50:26.708Z,102419.31
2023-04-17T14:53:28.309Z,102410.81
2023-04-17T14:56:29.962Z,102418.00
2023-04-17T14:59:31.839Z,102423.47
2023-04-17T15:02:38.426Z,102424.75
2023-04-17T15:05:40.518Z,102428.34
2023-04-17T15:08:42.167Z,102433.03
2023-04-17T15:11:43.784Z,102432.63
2023-04-17T15:14:45.377Z,102428.78
2023-04-17T15:17:47.044Z,102427.72
2023-04-17T15:20:48.597Z,102430.88
2023-04-17T15:23:50.157Z,102427.41
2023-04-17T15:26:51.672Z,102434.41
2023-04-17T15:29:53.238Z,102438.53
2023-04-17T15:32:54.818Z,102441.31
2023-04-17T15:35:58.590Z,102442.66
2023-04-17T15:39:01.173Z,102437.66
2023-04-17T15:42:03.145Z,102439.91
2023-04-17T15:45:05.350Z,102444.81
2023-04-17T15:48:07.091Z,102439.78
2023-04-17T15:51:09.584Z,102445.50
2023-04-17T15:54:12.151Z,102443.38
2023-04-17T15:57:13.880Z,102444.84
2023-04-17T16:00:16.045Z,102456.97
2023-04-17T16:03:17.796Z,102453.84
2023-04-17T16:06:20.520Z,102458.81
2023-04-17T16:09:24.433Z,102465.44
2023-04-17T16:12:28.230Z,102470.41
2023-04-17T16:15:30.506Z,102469.94
2023-04-17T16:18:32.084Z,102459.56
2023-04-17T16:21:33.693Z,102467.19
2023-04-17T16:24:35.222Z,102474.75
2023-04-17T16:27:37.682Z,102471.75
2023-04-17T16:30:39.246Z,102465.00
2023-04-17T16:33:40.907Z,102475.97
2023-04-17T16:36:45.411Z,102478.81
2023-04-17T16:39:47.360Z,102486.47
2023-04-17T16:42:48.896Z,102482.63
2023-04-17T16:45:50.563Z,102490.28
2023-04-17T16:48:52.862Z,102496.09
2023-04-17T16:51:54.636Z,102494.84
2023-04-17T16:54:56.244Z,102504.22
2023-04-17T16:58:00.121Z,102497.66
2023-04-17T17:01:01.789Z,102505.19
2023-04-17T17:04:03.560Z,102503.81
2023-04-17T17:07:06.123Z,102516.56
2023-04-17T17:10:08.297Z,102509.91
2023-04-17T17:13:09.877Z,102511.25
2023-04-17T17:16:11.527Z,102515.88
2023-04-17T17:19:14.767Z,102526.03
2023-04-17T17:22:16.564Z,102518.75
2023-04-17T17:25:18.156Z,102535.31
2023-04-17T17:28:19.768Z,102549.06
2023-04-17T17:31:21.476Z,102538.91
2023-04-17T17:34:26.641Z,102542.97
2023-04-17T17:37:28.736Z,102549.63
2023-04-17T17:40:30.523Z,102552.84
2023-04-17T17:43:32.094Z,102552.38
2023-04-17T17:46:35.975Z,102564.25
2023-04-17T17:49:37.669Z,102563.91
2023-04-17T17:52:39.253Z,102575.09
2023-04-17T17:55:40.806Z,102583.53
2023-04-17T17:58:42.469Z,102575.13
2023-04-17T18:01:44.276Z,102586.22
2023-04-17T18:04:46.088Z,102588.31
2023-04-17T18:07:47.982Z,102589.56
2023-04-17T18:10:49.523Z,102603.31
2023-04-17T18:13:51.314Z,102611.72
2023-04-17T18:16:53.086Z,102606.88
2023-04-17T18:19:54.651Z,102607.28
2023-04-17T18:22:56.471Z,102609.41
2023-04-17T18:26:02.979Z,102612.38
2023-04-17T18:29:04.683Z,102610.88
2023-04-17T18:32:06.483Z,102607.66
2023-04-17T18:35:08.428Z,102614.22
2023-04-17T18:38:10.059Z,102616.22
2023-04-17T18:41:11.600Z,102619.13
2023-04-17T18:44:13.931Z,102620.28
2023-04-17T18:47:15.624Z,102625.94
2023-04-17T18:50:17.338Z,102627.13
2023-04-17T18:53:18.937Z,102626.53
2023-04-17T18:56:20.484Z,102629.41
2023-04-17T18:59:22.108Z,102633.28
2023-04-17T19:02:23.737Z,102635.28
2023-04-17T19:05:27.144Z,102634.59
2023-04-17T19:08:28.877Z,102630.31
2023-04-17T19:11:31.104Z,102639.41
2023-04-17T19:14:33.052Z,102637.94
2023-04-17T19:17:35.491Z,102640.78
2023-04-17T19:20:38.700Z,102642.72
2023-04-17T19:23:41.015Z,102634.97
2023-04-17T19:26:43.360Z,102639.56
2023-04-17T19:29:46.116Z,102638.78
2023-04-17T19:32:48.273Z,102638.91
2023-04-17T19:35:50.596Z,102643.50
2023-04-17T19:38:54.394Z,102640.16
2023-04-17T19:41:55.959Z,102642.78
2023-04-17T19:44:57.525Z,102641.94
2023-04-17T19:47:59.733Z,102632.38
2023-04-17T19:51:04.624Z,102640.47
2023-04-17T19:54:06.245Z,102639.75
2023-04-17T19:57:07.787Z,102648.75
2023-04-17T20:00:10.306Z,102649.81
2023-04-17T20:03:12.040Z,102645.59
2023-04-17T20:06:14.113Z,102650.06
2023-04-17T20:09:16.707Z,102652.72
2023-04-17T20:12:20.722Z,102647.47
2023-04-17T20:15:22.296Z,102656.25
2023-04-17T20:18:24.208Z,102651.09
2023-04-17T20:21:26.731Z,102644.16
2023-04-17T20:24:28.609Z,102646.13
2023-04-17T20:27:30.137Z,102644.31
2023-04-17T20:30:31.799Z,102648.72
2023-04-17T20:33:33.469Z,102640.78
2023-04-17T20:36:35.352Z,102641.66
2023-04-17T20:39:36.951Z,102648.88
2023-04-17T20:42:38.978Z,102648.16
2023-04-17T20:45:40.573Z,102647.47
2023-04-17T20:48:42.143Z,102655.56
2023-04-17T20:51:44.436Z,102650.41
2023-04-17T20:54:46.046Z,102658.56
2023-04-17T20:57:47.801Z,102653.47
2023-04-17T21:01:00.823Z,102654.50
2023-04-17T21:04:03.403Z,102659.09
2023-04-17T21:07:04.966Z,102651.22
2023-04-17T21:10:07.034Z,102652.22
2023-04-17T21:13:08.746Z,102662.06
2023-04-17T21:16:11.734Z,102655.19
2023-04-17T21:19:14.599Z,102657.06
2023-04-17T21:22:16.352Z,102656.31
2023-04-17T21:25:17.999Z,102651.19
2023-04-17T21:28:20.015Z,102655.69
2023-04-17T21:31:21.642Z,102659.31
2023-04-17T21:34:24.250Z,102660.28
2023-04-17T21:37:25.844Z,102657.78
2023-04-17T21:40:32.703Z,102658.69
2023-04-17T21:43:35.069Z,102655.28
2023-04-17T21:46:37.995Z,102664.16
2023-04-17T21:49:39.582Z,102660.75
2023-04-17T21:52:41.089Z,102655.63
2023-04-17T21:55:42.672Z,102660.16
2023-04-17T21:58:44.218Z,102662.00
2023-04-17T22:01:45.750Z,102667.41
2023-04-17T22:04:47.355Z,102671.94
2023-04-17T22:07:54.874Z,102664.94
2023-04-17T22:10:57.092Z,102673.81
2023-04-17T22:13:58.721Z,102673.88
2023-04-17T22:17:00.401Z,102684.06
2023-04-17T22:20:02.229Z,102685.97
2023-04-17T22:23:03.858Z,102679.78
2023-04-17T22:26:05.767Z,102680.81
2023-04-17T22:29:07.584Z,102681.75
2023-04-17T22:32:09.156Z,102678.28
2023-04-17T22:35:10.730Z,102676.47
2023-04-17T22:38:12.336Z,102680.00
2023-04-17T22:41:13.912Z,102670.34
2023-04-17T22:44:15.784Z,102679.22
2023-04-17T22:47:17.602Z,102683.72
2023-04-17T22:50:19.236Z,102674.09
2023-04-17T22:53:22.526Z,102675.03
2023-04-17T22:56:24.230Z,102683.06
2023-04-17T22:59:26.030Z,102684.78
2023-04-17T23:02:27.644Z,102683.03
2023-04-17T23:05:29.381Z,102675.09
2023-04-17T23:08:31.226Z,102683.91
2023-04-17T23:11:33.070Z,102683.91
2023-04-17T23:14:34.670Z,102689.13
2023-04-17T23:17:36.280Z,102691.78
2023-04-17T23:20:37.855Z,102690.06
2023-04-17T23:23:39.395Z,102701.50
2023-04-17T23:26:41.872Z,102703.25
2023-04-17T23:29:43.484Z,102695.38
2023-04-17T23:32:45.170Z,102696.34
2023-04-17T23:35:46.740Z,102699.94
2023-04-17T23:38:48.350Z,102698.22
2023-04-17T23:41:50.444Z,102697.38
2023-04-17T23:44:52.040Z,102701.88
2023-04-17T23:47:53.704Z,102699.28
2023-04-17T23:50:55.779Z,102701.09
2023-04-17T23:53:59.571Z,102702.03
2023-04-17T23:57:01.275Z,102707.38
